createdAt,value
2019-04-13T00:00:54.197Z,7.10
2019-04-13T00:03:22.967Z,6.67
2019-04-13T00:05:53.286Z,6.87
2019-04-13T00:08:23.649Z,5.85
2019-04-13T00:10:56.959Z,7.50
2019-04-13T00:13:25.766Z,6.40
2019-04-13T00:15:54.518Z,5.97
2019-04-13T00:18:23.246Z,5.33
2019-04-13T00:20:52.049Z,6.27
2019-04-13T00:23:20.804Z,5.90
2019-04-13T00:25:49.592Z,6.30
2019-04-13T00:28:18.427Z,6.12
2019-04-13T00:30:47.224Z,7.00
2019-04-13T00:33:15.982Z,5.37
2019-04-13T00:35:44.785Z,6.47
2019-04-13T00:38:13.560Z,7.28
2019-04-13T00:40:42.297Z,5.58
2019-04-13T00:43:11.064Z,5.77
2019-04-13T00:45:39.803Z,6.80
2019-04-13T00:48:08.582Z,6.20
2019-04-13T00:50:37.355Z,5.80
2019-04-13T00:53:06.220Z,6.40
2019-04-13T00:55:34.987Z,6.27
2019-04-13T00:58:03.739Z,6.57
2019-04-13T01:00:32.476Z,7.67
2019-04-13T01:03:01.284Z,6.57
2019-04-13T01:05:30.025Z,5.50
2019-04-13T01:07:58.772Z,6.20
2019-04-13T01:10:27.571Z,6.70
2019-04-13T01:12:56.325Z,6.63
2019-04-13T01:15:25.114Z,6.25
2019-04-13T01:17:53.895Z,6.37
2019-04-13T01:20:22.865Z,5.87
2019-04-13T01:22:51.592Z,5.07
2019-04-13T01:25:20.340Z,6.27
2019-04-13T01:27:49.119Z,6.37
2019-04-13T01:30:17.955Z,6.20
2019-04-13T01:32:46.784Z,6.40
2019-04-13T01:35:15.531Z,5.67
2019-04-13T01:37:44.274Z,6.17
2019-04-13T01:40:13.152Z,5.55
2019-04-13T01:42:41.880Z,5.23
2019-04-13T01:45:10.745Z,6.47
2019-04-13T01:47:39.572Z,6.23
2019-04-13T01:50:08.361Z,6.40
2019-04-13T01:52:37.716Z,6.70
2019-04-13T01:55:06.552Z,6.53
2019-04-13T01:57:35.500Z,6.00
2019-04-13T02:00:07.663Z,4.87
2019-04-13T02:02:50.224Z,4.60
2019-04-13T02:05:20.567Z,5.57
2019-04-13T02:07:50.892Z,6.00
2019-04-13T02:10:24.248Z,5.15
2019-04-13T02:12:52.996Z,6.70
2019-04-13T02:15:21.789Z,5.80
2019-04-13T02:17:50.546Z,6.33
2019-04-13T02:20:19.400Z,6.20
2019-04-13T02:22:48.176Z,7.07
2019-04-13T02:25:16.922Z,5.10
2019-04-13T02:27:45.744Z,6.50
2019-04-13T02:30:14.603Z,5.50
2019-04-13T02:32:43.366Z,5.33
2019-04-13T02:35:12.158Z,6.40
2019-04-13T02:37:40.969Z,5.20
2019-04-13T02:40:10.616Z,6.28
2019-04-13T02:42:39.357Z,6.50
2019-04-13T02:45:09.439Z,5.87
2019-04-13T02:47:38.227Z,6.13
2019-04-13T02:50:08.491Z,5.90
2019-04-13T02:52:37.252Z,6.70
2019-04-13T02:55:07.558Z,6.53
2019-04-13T02:57:36.412Z,5.57
2019-04-13T03:00:07.576Z,6.83
2019-04-13T03:02:36.356Z,6.73
2019-04-13T03:05:07.604Z,6.70
2019-04-13T03:07:36.346Z,6.07
2019-04-13T03:10:06.718Z,6.53
2019-04-13T03:12:35.462Z,6.63
2019-04-13T03:15:07.975Z,6.50
2019-04-13T03:17:53.982Z,6.33
2019-04-13T03:20:24.370Z,7.80
2019-04-13T03:22:53.121Z,8.00
2019-04-13T03:25:21.884Z,7.40
2019-04-13T03:27:50.671Z,8.77
2019-04-13T03:30:21.394Z,7.42
2019-04-13T03:32:50.462Z,8.47
2019-04-13T03:35:19.243Z,7.40
2019-04-13T03:37:48.079Z,7.77
2019-04-13T03:40:16.818Z,7.63
2019-04-13T03:42:45.612Z,8.43
2019-04-13T03:45:14.445Z,9.23
2019-04-13T03:47:43.181Z,8.03
2019-04-13T03:50:12.115Z,8.97
2019-04-13T03:52:40.877Z,8.57
2019-04-13T03:55:09.625Z,8.78
2019-04-13T03:57:38.422Z,8.40
2019-04-13T04:00:07.970Z,8.17
2019-04-13T04:02:36.758Z,7.50
2019-04-13T04:05:07.098Z,7.50
2019-04-13T04:07:35.899Z,10.27
2019-04-13T04:10:07.162Z,12.78
2019-04-13T04:12:35.899Z,10.60
2019-04-13T04:15:08.220Z,9.93
2019-04-13T04:17:36.975Z,8.20
2019-04-13T04:20:07.048Z,9.80
2019-04-13T04:22:35.825Z,8.60
2019-04-13T04:25:05.413Z,10.00
2019-04-13T04:27:34.192Z,8.60
2019-04-13T04:30:02.981Z,8.80
2019-04-13T04:32:31.797Z,8.80
2019-04-13T04:35:00.542Z,9.93
2019-04-13T04:37:29.331Z,8.37
2019-04-13T04:39:58.119Z,13.90
2019-04-13T04:42:26.902Z,16.00
2019-04-13T04:44:55.659Z,11.97
2019-04-13T04:47:25.256Z,10.80
2019-04-13T04:49:54.046Z,9.63
2019-04-13T04:52:22.849Z,9.17
2019-04-13T04:54:59.879Z,8.07
2019-04-13T04:57:44.601Z,8.90
2019-04-13T05:00:29.089Z,8.43
2019-04-13T05:03:12.207Z,8.23
2019-04-13T05:05:56.214Z,7.63
2019-04-13T05:08:43.205Z,8.93
2019-04-13T05:11:28.023Z,10.10
2019-04-13T05:14:15.353Z,7.53
2019-04-13T05:19:56.966Z,8.97
2019-04-13T05:22:42.236Z,9.13
2019-04-13T05:25:26.326Z,8.43
2019-04-13T05:28:13.312Z,7.63
2019-04-13T05:30:58.151Z,7.47
2019-04-13T05:33:43.489Z,7.50
2019-04-13T05:36:32.474Z,7.43
2019-04-13T05:39:13.837Z,7.27
2019-04-13T05:42:01.230Z,7.40
2019-04-13T05:44:45.245Z,7.27
2019-04-13T05:47:36.043Z,7.67
2019-04-13T05:50:19.454Z,7.10
2019-04-13T05:53:09.441Z,7.80
2019-04-13T05:55:52.859Z,7.47
2019-04-13T05:58:37.745Z,5.87
2019-04-13T06:01:08.263Z,6.73
2019-04-13T06:03:37.018Z,7.03
2019-04-13T06:06:05.781Z,7.17
2019-04-13T06:08:36.101Z,7.40
2019-04-13T06:11:05.665Z,6.80
2019-04-13T06:13:34.591Z,6.47
2019-04-13T06:16:06.593Z,7.20
2019-04-13T06:18:36.206Z,6.93
2019-04-13T06:21:06.979Z,6.30
2019-04-13T06:23:36.208Z,6.93
2019-04-13T06:26:05.404Z,7.80
2019-04-13T06:28:34.176Z,7.35
2019-04-13T06:31:04.570Z,7.30
2019-04-13T06:33:43.669Z,7.80
2019-04-13T06:36:12.517Z,7.10
2019-04-13T06:38:43.199Z,7.00
2019-04-13T06:41:11.999Z,6.50
2019-04-13T06:43:40.800Z,7.40
2019-04-13T06:46:09.547Z,7.17
2019-04-13T06:48:38.296Z,7.73
2019-04-13T06:51:07.076Z,7.13
2019-04-13T06:53:38.349Z,7.20
2019-04-13T06:56:06.397Z,6.90
2019-04-13T06:58:35.136Z,6.30
2019-04-13T07:01:05.022Z,5.80
2019-04-13T07:03:34.697Z,4.50
2019-04-13T07:06:03.592Z,5.60
2019-04-13T07:08:38.547Z,5.13
2019-04-13T07:11:12.870Z,6.47
2019-04-13T07:13:52.920Z,7.53
2019-04-13T07:16:29.843Z,5.53
2019-04-13T07:19:00.379Z,5.90
2019-04-13T07:21:29.391Z,5.50
2019-04-13T07:23:58.767Z,5.50
2019-04-13T07:26:28.126Z,5.70
2019-04-13T07:28:57.005Z,5.40
2019-04-13T07:31:25.734Z,5.10
2019-04-13T07:33:54.464Z,5.87
2019-04-13T07:36:23.532Z,6.23
2019-04-13T07:38:52.280Z,5.40
2019-04-13T07:41:21.103Z,6.23
2019-04-13T07:43:49.896Z,6.23
2019-04-13T07:46:35.120Z,5.35
2019-04-13T07:49:22.427Z,5.50
2019-04-13T07:52:06.948Z,4.83
2019-04-13T07:54:35.149Z,5.00
2019-04-13T07:57:05.329Z,5.37
2019-04-13T07:59:34.366Z,5.53
2019-04-13T08:02:03.135Z,4.50
2019-04-13T08:04:31.874Z,4.10
2019-04-13T08:07:06.145Z,4.83
2019-04-13T08:09:32.660Z,4.77
2019-04-13T08:12:01.402Z,4.40
2019-04-13T08:14:34.707Z,4.03
2019-04-13T08:17:06.605Z,4.27
2019-04-13T08:19:37.509Z,4.43
2019-04-13T08:22:06.311Z,4.10
2019-04-13T08:24:35.032Z,4.37
2019-04-13T08:27:03.759Z,4.30
2019-04-13T08:29:32.536Z,4.00
2019-04-13T08:32:01.981Z,4.90
2019-04-13T08:34:31.865Z,5.27
2019-04-13T08:37:03.459Z,5.00
2019-04-13T08:39:31.092Z,4.17
2019-04-13T08:41:59.911Z,3.97
2019-04-13T08:44:28.659Z,3.90
2019-04-13T08:46:57.379Z,3.77
2019-04-13T08:49:26.146Z,3.10
2019-04-13T08:51:54.910Z,2.80
2019-04-13T08:54:23.741Z,3.10
2019-04-13T08:56:52.494Z,2.77
2019-04-13T08:59:21.257Z,2.97
2019-04-13T09:01:50.299Z,3.00
2019-04-13T09:04:19.044Z,3.25
2019-04-13T09:06:47.835Z,3.00
2019-04-13T09:09:16.566Z,3.33
2019-04-13T09:11:45.299Z,2.83
2019-04-13T09:14:14.742Z,2.67
2019-04-13T09:16:45.124Z,2.90
2019-04-13T09:19:29.362Z,4.20
2019-04-13T09:22:00.229Z,2.27
2019-04-13T09:24:28.980Z,2.90
2019-04-13T09:26:57.757Z,2.60
2019-04-13T09:29:26.542Z,2.60
2019-04-13T09:31:59.302Z,2.50
2019-04-13T09:34:30.401Z,4.10
2019-04-13T09:37:00.119Z,3.40
2019-04-13T09:39:26.681Z,3.20
2019-04-13T09:41:55.453Z,3.77
2019-04-13T09:44:25.809Z,2.90
2019-04-13T09:46:55.612Z,3.00
2019-04-13T09:49:24.350Z,2.97
2019-04-13T09:51:53.072Z,2.80
2019-04-13T09:54:21.862Z,3.50
2019-04-13T09:56:52.682Z,3.17
2019-04-13T09:59:22.226Z,2.93
2019-04-13T10:01:51.029Z,4.20
2019-04-13T10:04:19.807Z,3.20
2019-04-13T10:06:48.552Z,5.33
2019-04-13T10:09:17.345Z,3.87
2019-04-13T10:11:53.658Z,4.03
2019-04-13T10:14:40.263Z,3.50
2019-04-13T10:17:10.589Z,3.70
2019-04-13T10:19:40.144Z,4.47
2019-04-13T10:22:09.405Z,3.03
2019-04-13T10:24:38.157Z,3.90
2019-04-13T10:27:08.318Z,3.30
2019-04-13T10:29:37.886Z,3.67
2019-04-13T10:32:06.738Z,4.80
2019-04-13T10:34:35.524Z,4.03
2019-04-13T10:37:04.257Z,4.67
2019-04-13T10:39:32.994Z,4.37
2019-04-13T10:42:01.799Z,4.93
2019-04-13T10:44:43.948Z,5.13
2019-04-13T10:47:30.663Z,4.23
2019-04-13T10:50:07.515Z,4.97
2019-04-13T10:52:34.434Z,3.50
2019-04-13T10:55:03.313Z,7.33
2019-04-13T10:57:32.061Z,4.17
2019-04-13T11:00:00.867Z,4.30
2019-04-13T11:02:29.600Z,4.03
2019-04-13T11:04:58.339Z,3.50
2019-04-13T11:07:27.088Z,3.80
2019-04-13T11:09:55.832Z,4.20
2019-04-13T11:12:24.722Z,3.47
2019-04-13T11:14:53.644Z,4.10
2019-04-13T11:17:23.245Z,3.10
2019-04-13T11:19:52.112Z,3.20
2019-04-13T11:22:22.030Z,4.10
2019-04-13T11:24:51.419Z,3.63
2019-04-13T11:27:20.194Z,3.08
2019-04-13T11:29:49.819Z,4.30
2019-04-13T11:32:18.609Z,3.20
2019-04-13T11:34:47.361Z,4.00
2019-04-13T11:37:16.128Z,4.13
2019-04-13T11:39:44.889Z,4.33
2019-04-13T11:42:30.443Z,4.60
2019-04-13T11:45:17.644Z,5.20
2019-04-13T11:47:54.137Z,4.40
2019-04-13T11:50:24.470Z,4.23
2019-04-13T11:52:53.247Z,3.87
2019-04-13T11:55:21.970Z,4.20
2019-04-13T11:57:50.786Z,3.93
2019-04-13T12:00:37.101Z,4.12
2019-04-13T12:03:16.416Z,3.80
2019-04-13T12:05:46.734Z,2.70
2019-04-13T12:08:22.553Z,3.12
2019-04-13T12:10:59.076Z,3.30
2019-04-13T12:13:38.361Z,3.60
2019-04-13T12:16:24.899Z,3.00
2019-04-13T12:18:57.985Z,3.17
2019-04-13T12:21:41.179Z,3.70
2019-04-13T12:24:11.537Z,4.78
2019-04-13T12:26:40.576Z,6.23
2019-04-13T12:29:09.476Z,4.95
2019-04-13T12:31:39.290Z,3.60
2019-04-13T12:34:08.844Z,4.17
2019-04-13T12:36:37.733Z,2.70
2019-04-13T12:39:07.888Z,3.90
2019-04-13T12:41:41.334Z,1.50
2019-04-13T12:44:10.173Z,1.23
2019-04-13T12:46:38.952Z,1.90
2019-04-13T12:49:10.908Z,2.70
2019-04-13T12:51:39.712Z,2.00
2019-04-13T12:54:08.450Z,2.60
2019-04-13T12:56:37.206Z,1.93
2019-04-13T12:59:06.242Z,3.00
2019-04-13T13:01:46.049Z,2.70
2019-04-13T13:04:15.277Z,2.90
2019-04-13T13:06:44.012Z,2.67
2019-04-13T13:09:14.406Z,2.83
2019-04-13T13:11:43.644Z,2.80
2019-04-13T13:14:13.257Z,3.50
2019-04-13T13:16:46.391Z,4.50
2019-04-13T13:19:12.508Z,3.33
2019-04-13T13:21:41.330Z,3.87
2019-04-13T13:24:10.092Z,3.90
2019-04-13T13:26:47.797Z,4.27
2019-04-13T13:29:09.321Z,3.90
2019-04-13T13:31:38.082Z,3.87
2019-04-13T13:34:06.980Z,3.20
2019-04-13T13:36:35.743Z,3.33
2019-04-13T13:39:07.221Z,2.60
2019-04-13T13:41:36.124Z,3.90
2019-04-13T13:44:05.071Z,4.00
2019-04-13T13:46:34.094Z,3.90
2019-04-13T13:49:02.839Z,2.77
2019-04-13T13:51:31.674Z,3.50
2019-04-13T13:54:01.372Z,6.60
2019-04-13T13:56:32.229Z,4.53
2019-04-13T13:59:02.900Z,5.10
2019-04-13T14:01:48.196Z,4.80
2019-04-13T14:04:16.949Z,4.37
2019-04-13T14:06:45.676Z,4.80
2019-04-13T14:09:14.431Z,4.10
2019-04-13T14:11:43.161Z,4.10
2019-04-13T14:14:11.975Z,3.70
2019-04-13T14:16:42.323Z,3.83
2019-04-13T14:19:11.165Z,3.93
2019-04-13T14:21:39.940Z,3.70
2019-04-13T14:24:08.758Z,4.00
2019-04-13T14:26:37.555Z,4.10
2019-04-13T14:29:10.564Z,4.65
2019-04-13T14:31:36.782Z,4.57
2019-04-13T14:34:05.637Z,4.58
2019-04-13T14:36:35.623Z,4.93
2019-04-13T14:39:07.596Z,4.55
2019-04-13T14:41:36.582Z,5.43
2019-04-13T14:44:05.596Z,4.87
2019-04-13T14:46:35.096Z,4.90
2019-04-13T14:49:03.983Z,4.53
2019-04-13T14:51:33.551Z,4.47
2019-04-13T14:54:02.275Z,4.70
2019-04-13T14:56:35.319Z,5.63
2019-04-13T14:59:01.506Z,3.97
2019-04-13T15:01:30.308Z,5.00
2019-04-13T15:03:59.155Z,5.33
2019-04-13T15:06:27.985Z,5.10
2019-04-13T15:08:57.011Z,5.23
2019-04-13T15:11:25.753Z,5.03
2019-04-13T15:13:55.675Z,5.33
2019-04-13T15:16:26.468Z,5.57
2019-04-13T15:18:57.339Z,4.70
2019-04-13T15:21:32.819Z,5.10
2019-04-13T15:23:57.927Z,7.40
2019-04-13T15:26:27.654Z,5.10
2019-04-13T15:28:58.099Z,5.10
2019-04-13T15:31:30.608Z,4.87
2019-04-13T15:34:00.436Z,4.40
2019-04-13T15:36:31.017Z,5.43
2019-04-13T15:39:02.802Z,5.50
2019-04-13T15:41:38.436Z,4.93
2019-04-13T15:44:04.053Z,5.53
2019-04-13T15:46:31.826Z,5.70
2019-04-13T15:49:00.968Z,6.23
2019-04-13T15:51:30.177Z,5.63
2019-04-13T15:54:02.129Z,8.40
2019-04-13T15:56:29.525Z,8.53
2019-04-13T15:58:59.420Z,6.97
2019-04-13T16:01:29.642Z,5.93
2019-04-13T16:03:59.156Z,6.25
2019-04-13T16:06:28.029Z,6.00
2019-04-13T16:09:05.528Z,7.30
2019-04-13T16:12:04.084Z,9.60
2019-04-13T16:14:39.561Z,8.33
2019-04-13T16:17:08.419Z,10.50
2019-04-13T16:19:37.397Z,9.63
2019-04-13T16:22:07.053Z,8.15
2019-04-13T16:24:37.195Z,10.00
2019-04-13T16:27:07.788Z,11.90
2019-04-13T16:29:42.602Z,10.90
2019-04-13T16:32:29.613Z,10.63
2019-04-13T16:35:16.621Z,11.63
2019-04-13T16:37:47.027Z,10.07
2019-04-13T16:40:16.294Z,11.80
2019-04-13T16:42:46.574Z,11.03
2019-04-13T16:45:27.724Z,10.93
2019-04-13T16:48:14.798Z,10.43
2019-04-13T16:50:45.357Z,9.60
2019-04-13T16:53:22.330Z,10.40
2019-04-13T16:55:56.416Z,11.20
2019-04-13T16:58:30.049Z,10.87
2019-04-13T17:01:00.420Z,10.87
2019-04-13T17:03:37.881Z,9.90
2019-04-13T17:06:09.067Z,10.33
2019-04-13T17:08:38.787Z,10.47
2019-04-13T17:11:09.234Z,9.03
2019-04-13T17:13:39.168Z,10.40
2019-04-13T17:16:09.150Z,10.57
2019-04-13T17:18:54.761Z,10.03
2019-04-13T17:21:29.104Z,9.50
2019-04-13T17:24:03.037Z,9.85
2019-04-13T17:26:40.106Z,10.30
2019-04-13T17:29:10.969Z,9.60
2019-04-13T17:31:53.673Z,10.40
2019-04-13T17:34:25.546Z,9.97
2019-04-13T17:36:56.666Z,10.60
2019-04-13T17:39:25.607Z,11.67
2019-04-13T17:42:11.901Z,10.50
2019-04-13T17:44:42.395Z,10.00
2019-04-13T17:47:28.894Z,8.48
2019-04-13T17:50:05.844Z,9.83
2019-04-13T17:52:39.277Z,9.33
2019-04-13T17:55:09.723Z,10.30
2019-04-13T17:57:57.517Z,8.83
2019-04-13T18:00:37.768Z,10.60
2019-04-13T18:03:11.505Z,12.77
2019-04-13T18:05:41.830Z,13.10
2019-04-13T18:08:40.900Z,24.40
2019-04-13T18:11:01.110Z,34.00
2019-04-13T18:13:51.744Z,18.43
2019-04-13T18:16:19.217Z,12.47
2019-04-13T18:18:50.281Z,15.40
2019-04-13T18:21:19.893Z,12.00
2019-04-13T18:23:48.842Z,18.40
2019-04-13T18:26:18.518Z,9.85
2019-04-13T18:28:47.955Z,9.23
2019-04-13T18:31:17.173Z,12.25
2019-04-13T18:33:47.535Z,13.77
2019-04-13T18:36:17.669Z,11.68
2019-04-13T18:38:48.118Z,11.90
2019-04-13T18:41:18.573Z,12.10
2019-04-13T18:43:47.815Z,12.67
2019-04-13T18:46:18.563Z,12.88
2019-04-13T18:48:47.273Z,12.00
2019-04-13T18:51:16.907Z,11.35
2019-04-13T18:53:46.584Z,10.37
2019-04-13T18:56:16.793Z,12.70
2019-04-13T18:58:45.972Z,15.05
2019-04-13T19:01:16.066Z,11.90
2019-04-13T19:03:45.590Z,10.63
2019-04-13T19:06:26.403Z,10.67
2019-04-13T19:08:45.239Z,9.80
2019-04-13T19:11:14.135Z,11.03
2019-04-13T19:13:42.891Z,12.17
2019-04-13T19:16:11.846Z,10.57
2019-04-13T19:18:40.594Z,9.60
2019-04-13T19:21:09.395Z,10.27
2019-04-13T19:23:38.134Z,10.60
2019-04-13T19:26:06.876Z,10.50
2019-04-13T19:28:36.016Z,13.00
2019-04-13T19:31:07.831Z,11.53
2019-04-13T19:33:37.016Z,12.00
2019-04-13T19:36:05.798Z,10.83
2019-04-13T19:38:37.744Z,11.13
2019-04-13T19:41:06.964Z,11.93
2019-04-13T19:43:35.698Z,11.33
2019-04-13T19:46:11.318Z,10.70
2019-04-13T19:48:47.918Z,10.80
2019-04-13T19:51:18.602Z,11.35
2019-04-13T19:53:48.919Z,11.33
2019-04-13T19:56:19.323Z,14.67
2019-04-13T19:58:48.728Z,14.77
2019-04-13T20:01:25.724Z,12.37
2019-04-13T20:03:55.019Z,9.77
2019-04-13T20:06:23.913Z,10.27
2019-04-13T20:09:01.513Z,12.97
2019-04-13T20:11:31.591Z,11.20
2019-04-13T20:14:06.972Z,10.37
2019-04-13T20:16:31.999Z,13.70
2019-04-13T20:19:01.819Z,14.73
2019-04-13T20:21:31.359Z,12.68
2019-04-13T20:24:01.461Z,14.47
2019-04-13T20:26:31.846Z,16.43
2019-04-13T20:29:01.650Z,11.00
2019-04-13T20:31:31.126Z,11.97
2019-04-13T20:34:01.129Z,10.97
2019-04-13T20:36:31.247Z,13.83
2019-04-13T20:39:00.538Z,16.67
2019-04-13T20:41:40.533Z,18.95
2019-04-13T20:44:07.391Z,16.52
2019-04-13T20:46:30.404Z,12.90
2019-04-13T20:48:59.802Z,10.20
2019-04-13T20:51:30.160Z,10.30
2019-04-13T20:53:58.977Z,9.78
2019-04-13T20:56:27.737Z,10.53
2019-04-13T20:58:57.605Z,11.00
2019-04-13T21:01:26.374Z,11.30
2019-04-13T21:03:55.528Z,14.80
2019-04-13T21:06:24.360Z,12.60
2019-04-13T21:08:55.795Z,15.17
2019-04-13T21:11:23.554Z,14.83
2019-04-13T21:14:04.383Z,14.57
2019-04-13T21:16:23.522Z,12.63
2019-04-13T21:18:53.592Z,12.70
2019-04-13T21:21:23.685Z,13.50
2019-04-13T21:23:53.815Z,12.95
2019-04-13T21:26:24.227Z,12.77
2019-04-13T21:28:53.705Z,13.65
2019-04-13T21:31:23.843Z,13.60
2019-04-13T21:33:54.028Z,15.90
2019-04-13T21:36:24.504Z,14.67
2019-04-13T21:38:56.200Z,14.80
2019-04-13T21:41:30.208Z,15.07
2019-04-13T21:44:10.922Z,13.70
2019-04-13T21:46:30.648Z,14.70
2019-04-13T21:48:59.426Z,16.10
2019-04-13T21:51:42.300Z,14.53
2019-04-13T21:54:14.696Z,16.97
2019-04-13T21:56:43.544Z,15.53
2019-04-13T21:59:12.918Z,14.67
2019-04-13T22:02:02.976Z,15.53
2019-04-13T22:04:32.627Z,13.80
2019-04-13T22:07:02.633Z,12.80
2019-04-13T22:09:32.662Z,14.30
2019-04-13T22:12:02.723Z,13.20
2019-04-13T22:14:41.582Z,14.53
2019-04-13T22:17:02.904Z,14.90
2019-04-13T22:19:31.798Z,13.70
2019-04-13T22:22:01.134Z,12.77
2019-04-13T22:24:30.909Z,13.88
2019-04-13T22:27:00.745Z,12.57
2019-04-13T22:29:41.987Z,14.90
2019-04-13T22:32:27.530Z,13.40
2019-04-13T22:35:04.387Z,13.38
2019-04-13T22:37:34.303Z,20.97
2019-04-13T22:40:04.094Z,17.33
2019-04-13T22:42:33.841Z,20.77
2019-04-13T22:45:06.501Z,19.60
2019-04-13T22:47:34.207Z,15.58
2019-04-13T22:50:24.113Z,14.17
2019-04-13T22:52:55.928Z,19.15
2019-04-13T22:55:34.567Z,15.30
2019-04-13T22:58:03.146Z,13.40
2019-04-13T23:00:43.173Z,13.95
2019-04-13T23:03:15.939Z,13.00
2019-04-13T23:05:45.813Z,18.45
2019-04-13T23:08:16.638Z,17.45
2019-04-13T23:10:46.445Z,17.90
2019-04-13T23:13:16.891Z,14.80
2019-04-13T23:15:47.058Z,12.50
2019-04-13T23:18:16.971Z,13.70
2019-04-13T23:20:47.509Z,12.80
2019-04-13T23:23:17.991Z,12.77
2019-04-13T23:25:48.502Z,12.67
2019-04-13T23:28:18.521Z,11.87
2019-04-13T23:30:48.779Z,12.95
2019-04-13T23:33:18.981Z,13.70
2019-04-13T23:35:49.490Z,11.80
2019-04-13T23:38:20.195Z,12.57
2019-04-13T23:40:50.590Z,12.10
2019-04-13T23:43:21.085Z,12.60
2019-04-13T23:45:51.679Z,12.43
2019-04-13T23:48:22.093Z,11.87
2019-04-13T23:50:52.410Z,11.10
2019-04-13T23:53:21.260Z,11.93
2019-04-13T23:55:53.242Z,12.40
2019-04-13T23:58:43.140Z,10.67
